sensor_id;sensor_type;location;lat;lon;timestamp;P1;durP1;ratioP1;P2;durP2;ratioP2
31132;SDS011;17779;50.942;4.026;2023-05-10T00:01:25;15.80;;;8.18;;
31132;SDS011;17779;50.942;4.026;2023-05-10T00:03:50;15.27;;;8.43;;
31132;SDS011;17779;50.942;4.026;2023-05-10T00:06:16;17.52;;;9.70;;
31132;SDS011;17779;50.942;4.026;2023-05-10T00:08:42;20.63;;;9.00;;
31132;SDS011;17779;50.942;4.026;2023-05-10T00:11:09;14.75;;;8.65;;
31132;SDS011;17779;50.942;4.026;2023-05-10T00:13:36;17.73;;;9.52;;
31132;SDS011;17779;50.942;4.026;2023-05-10T00:16:02;17.90;;;9.30;;
31132;SDS011;17779;50.942;4.026;2023-05-10T00:18:28;22.42;;;10.18;;
31132;SDS011;17779;50.942;4.026;2023-05-10T00:20:53;19.67;;;9.48;;
31132;SDS011;17779;50.942;4.026;2023-05-10T00:23:20;18.92;;;9.30;;
31132;SDS011;17779;50.942;4.026;2023-05-10T00:25:46;24.88;;;10.30;;
31132;SDS011;17779;50.942;4.026;2023-05-10T00:28:13;19.73;;;9.88;;
31132;SDS011;17779;50.942;4.026;2023-05-10T00:30:39;21.70;;;10.80;;
31132;SDS011;17779;50.942;4.026;2023-05-10T00:33:06;19.55;;;10.25;;
31132;SDS011;17779;50.942;4.026;2023-05-10T00:35:32;19.10;;;10.02;;
31132;SDS011;17779;50.942;4.026;2023-05-10T00:37:58;17.65;;;9.85;;
31132;SDS011;17779;50.942;4.026;2023-05-10T00:40:24;22.73;;;10.60;;
31132;SDS011;17779;50.942;4.026;2023-05-10T00:42:50;22.85;;;11.00;;
31132;SDS011;17779;50.942;4.026;2023-05-10T00:45:16;20.05;;;10.07;;
31132;SDS011;17779;50.942;4.026;2023-05-10T00:47:42;20.65;;;10.65;;
31132;SDS011;17779;50.942;4.026;2023-05-10T00:50:08;20.20;;;11.20;;
31132;SDS011;17779;50.942;4.026;2023-05-10T00:55:00;20.45;;;11.02;;
31132;SDS011;17779;50.942;4.026;2023-05-10T00:59:53;20.08;;;10.73;;
31132;SDS011;17779;50.942;4.026;2023-05-10T01:02:20;20.25;;;10.50;;
31132;SDS011;17779;50.942;4.026;2023-05-10T01:04:45;24.08;;;12.20;;
31132;SDS011;17779;50.942;4.026;2023-05-10T01:07:11;22.00;;;12.23;;
31132;SDS011;17779;50.942;4.026;2023-05-10T01:09:37;22.52;;;12.60;;
31132;SDS011;17779;50.942;4.026;2023-05-10T01:12:03;23.92;;;12.45;;
31132;SDS011;17779;50.942;4.026;2023-05-10T01:14:31;22.55;;;13.07;;
31132;SDS011;17779;50.942;4.026;2023-05-10T01:17:00;26.33;;;13.95;;
31132;SDS011;17779;50.942;4.026;2023-05-10T01:19:26;27.35;;;14.90;;
31132;SDS011;17779;50.942;4.026;2023-05-10T01:27:11;26.90;;;14.38;;
31132;SDS011;17779;50.942;4.026;2023-05-10T01:37:59;27.73;;;15.45;;
31132;SDS011;17779;50.942;4.026;2023-05-10T01:43:22;32.50;;;16.25;;
31132;SDS011;17779;50.942;4.026;2023-05-10T01:48:27;28.08;;;16.30;;
31132;SDS011;17779;50.942;4.026;2023-05-10T01:50:53;30.95;;;17.73;;
31132;SDS011;17779;50.942;4.026;2023-05-10T01:53:21;31.83;;;17.73;;
31132;SDS011;17779;50.942;4.026;2023-05-10T01:55:49;30.55;;;17.40;;
31132;SDS011;17779;50.942;4.026;2023-05-10T01:58:29;33.92;;;18.70;;
31132;SDS011;17779;50.942;4.026;2023-05-10T02:00:58;32.33;;;17.88;;
31132;SDS011;17779;50.942;4.026;2023-05-10T02:03:28;30.75;;;17.92;;
31132;SDS011;17779;50.942;4.026;2023-05-10T02:05:58;33.85;;;18.02;;
31132;SDS011;17779;50.942;4.026;2023-05-10T02:08:26;28.95;;;18.73;;
31132;SDS011;17779;50.942;4.026;2023-05-10T02:10:53;33.92;;;18.90;;
31132;SDS011;17779;50.942;4.026;2023-05-10T02:13:24;32.28;;;18.05;;
31132;SDS011;17779;50.942;4.026;2023-05-10T02:15:52;30.95;;;17.25;;
31132;SDS011;17779;50.942;4.026;2023-05-10T02:18:19;29.15;;;17.00;;
31132;SDS011;17779;50.942;4.026;2023-05-10T02:20:47;33.30;;;18.48;;
31132;SDS011;17779;50.942;4.026;2023-05-10T02:23:15;38.45;;;18.17;;
31132;SDS011;17779;50.942;4.026;2023-05-10T02:25:43;33.60;;;17.70;;
31132;SDS011;17779;50.942;4.026;2023-05-10T02:28:10;34.17;;;17.67;;
31132;SDS011;17779;50.942;4.026;2023-05-10T02:30:40;33.83;;;18.48;;
31132;SDS011;17779;50.942;4.026;2023-05-10T02:33:06;34.90;;;18.52;;
31132;SDS011;17779;50.942;4.026;2023-05-10T02:35:33;31.83;;;17.45;;
31132;SDS011;17779;50.942;4.026;2023-05-10T02:38:00;33.90;;;17.80;;
31132;SDS011;17779;50.942;4.026;2023-05-10T02:40:27;30.33;;;17.58;;
31132;SDS011;17779;50.942;4.026;2023-05-10T02:42:54;30.92;;;17.73;;
31132;SDS011;17779;50.942;4.026;2023-05-10T02:45:24;28.50;;;17.67;;
31132;SDS011;17779;50.942;4.026;2023-05-10T02:47:54;28.10;;;17.02;;
31132;SDS011;17779;50.942;4.026;2023-05-10T02:50:20;31.50;;;17.10;;
31132;SDS011;17779;50.942;4.026;2023-05-10T02:52:48;30.67;;;17.27;;
31132;SDS011;17779;50.942;4.026;2023-05-10T02:55:17;32.03;;;17.50;;
31132;SDS011;17779;50.942;4.026;2023-05-10T02:57:51;28.13;;;16.25;;
31132;SDS011;17779;50.942;4.026;2023-05-10T03:00:26;30.73;;;17.33;;
31132;SDS011;17779;50.942;4.026;2023-05-10T03:02:52;30.67;;;17.02;;
31132;SDS011;17779;50.942;4.026;2023-05-10T03:07:44;31.77;;;16.38;;
31132;SDS011;17779;50.942;4.026;2023-05-10T03:10:11;29.05;;;17.40;;
31132;SDS011;17779;50.942;4.026;2023-05-10T03:13:27;30.52;;;16.20;;
31132;SDS011;17779;50.942;4.026;2023-05-10T03:18:42;37.50;;;16.80;;
31132;SDS011;17779;50.942;4.026;2023-05-10T03:21:16;30.75;;;17.55;;
31132;SDS011;17779;50.942;4.026;2023-05-10T03:23:50;31.10;;;16.83;;
31132;SDS011;17779;50.942;4.026;2023-05-10T03:26:24;33.35;;;18.15;;
31132;SDS011;17779;50.942;4.026;2023-05-10T03:28:53;31.20;;;16.45;;
31132;SDS011;17779;50.942;4.026;2023-05-10T03:31:23;27.10;;;16.80;;
31132;SDS011;17779;50.942;4.026;2023-05-10T03:33:50;29.83;;;17.35;;
31132;SDS011;17779;50.942;4.026;2023-05-10T03:36:17;28.60;;;16.67;;
31132;SDS011;17779;50.942;4.026;2023-05-10T03:38:43;31.77;;;17.02;;
31132;SDS011;17779;50.942;4.026;2023-05-10T03:41:11;26.77;;;16.98;;
31132;SDS011;17779;50.942;4.026;2023-05-10T03:43:36;30.58;;;18.63;;
31132;SDS011;17779;50.942;4.026;2023-05-10T03:46:02;33.33;;;18.83;;
31132;SDS011;17779;50.942;4.026;2023-05-10T03:48:29;28.30;;;18.10;;
31132;SDS011;17779;50.942;4.026;2023-05-10T03:50:55;33.47;;;19.80;;
31132;SDS011;17779;50.942;4.026;2023-05-10T03:53:23;33.35;;;19.05;;
31132;SDS011;17779;50.942;4.026;2023-05-10T03:55:48;31.88;;;18.90;;
31132;SDS011;17779;50.942;4.026;2023-05-10T03:58:14;35.53;;;19.55;;
31132;SDS011;17779;50.942;4.026;2023-05-10T04:00:42;34.70;;;20.90;;
31132;SDS011;17779;50.942;4.026;2023-05-10T04:03:11;35.55;;;20.52;;
31132;SDS011;17779;50.942;4.026;2023-05-10T04:05:40;32.30;;;19.73;;
31132;SDS011;17779;50.942;4.026;2023-05-10T04:08:07;35.13;;;20.65;;
31132;SDS011;17779;50.942;4.026;2023-05-10T04:10:33;34.00;;;21.23;;
31132;SDS011;17779;50.942;4.026;2023-05-10T04:12:58;34.80;;;20.80;;
31132;SDS011;17779;50.942;4.026;2023-05-10T04:15:24;33.95;;;21.05;;
31132;SDS011;17779;50.942;4.026;2023-05-10T04:17:50;33.40;;;20.73;;
31132;SDS011;17779;50.942;4.026;2023-05-10T04:20:16;34.28;;;20.90;;
31132;SDS011;17779;50.942;4.026;2023-05-10T04:22:42;34.80;;;20.25;;
31132;SDS011;17779;50.942;4.026;2023-05-10T04:25:08;30.60;;;19.92;;
31132;SDS011;17779;50.942;4.026;2023-05-10T04:27:34;36.50;;;21.05;;
31132;SDS011;17779;50.942;4.026;2023-05-10T04:29:59;35.72;;;20.00;;
31132;SDS011;17779;50.942;4.026;2023-05-10T04:32:25;37.50;;;20.73;;
31132;SDS011;17779;50.942;4.026;2023-05-10T04:34:52;34.65;;;20.35;;
31132;SDS011;17779;50.942;4.026;2023-05-10T04:37:18;34.53;;;20.23;;
31132;SDS011;17779;50.942;4.026;2023-05-10T04:39:44;35.22;;;19.80;;
31132;SDS011;17779;50.942;4.026;2023-05-10T04:42:10;34.78;;;20.33;;
31132;SDS011;17779;50.942;4.026;2023-05-10T04:47:05;40.47;;;22.10;;
31132;SDS011;17779;50.942;4.026;2023-05-10T04:49:31;33.05;;;20.23;;
31132;SDS011;17779;50.942;4.026;2023-05-10T04:51:57;34.97;;;20.38;;
31132;SDS011;17779;50.942;4.026;2023-05-10T04:54:23;32.42;;;20.10;;
31132;SDS011;17779;50.942;4.026;2023-05-10T04:56:49;36.35;;;19.73;;
31132;SDS011;17779;50.942;4.026;2023-05-10T04:59:14;34.10;;;20.75;;
31132;SDS011;17779;50.942;4.026;2023-05-10T05:01:40;35.83;;;21.85;;
31132;SDS011;17779;50.942;4.026;2023-05-10T05:04:06;35.35;;;20.90;;
31132;SDS011;17779;50.942;4.026;2023-05-10T05:06:32;36.35;;;20.25;;
31132;SDS011;17779;50.942;4.026;2023-05-10T05:08:57;34.28;;;20.98;;
31132;SDS011;17779;50.942;4.026;2023-05-10T05:11:23;36.47;;;20.15;;
31132;SDS011;17779;50.942;4.026;2023-05-10T05:13:51;35.35;;;19.95;;
31132;SDS011;17779;50.942;4.026;2023-05-10T05:16:17;33.92;;;20.95;;
31132;SDS011;17779;50.942;4.026;2023-05-10T05:18:42;34.78;;;20.42;;
31132;SDS011;17779;50.942;4.026;2023-05-10T05:21:18;37.60;;;21.10;;
31132;SDS011;17779;50.942;4.026;2023-05-10T05:23:45;43.60;;;21.42;;
31132;SDS011;17779;50.942;4.026;2023-05-10T05:26:11;38.38;;;21.63;;
31132;SDS011;17779;50.942;4.026;2023-05-10T05:28:37;46.25;;;23.73;;
31132;SDS011;17779;50.942;4.026;2023-05-10T05:31:03;45.90;;;23.58;;
31132;SDS011;17779;50.942;4.026;2023-05-10T05:33:31;53.75;;;25.60;;
31132;SDS011;17779;50.942;4.026;2023-05-10T05:35:57;45.58;;;24.85;;
31132;SDS011;17779;50.942;4.026;2023-05-10T05:38:25;46.28;;;25.10;;
31132;SDS011;17779;50.942;4.026;2023-05-10T05:40:52;44.97;;;25.35;;
31132;SDS011;17779;50.942;4.026;2023-05-10T05:43:18;52.75;;;26.10;;
31132;SDS011;17779;50.942;4.026;2023-05-10T05:45:44;53.17;;;26.50;;
31132;SDS011;17779;50.942;4.026;2023-05-10T05:48:10;52.97;;;26.85;;
31132;SDS011;17779;50.942;4.026;2023-05-10T05:50:36;46.55;;;24.67;;
31132;SDS011;17779;50.942;4.026;2023-05-10T05:53:02;46.95;;;25.55;;
31132;SDS011;17779;50.942;4.026;2023-05-10T05:55:28;57.55;;;27.45;;
31132;SDS011;17779;50.942;4.026;2023-05-10T05:57:56;48.20;;;25.00;;
31132;SDS011;17779;50.942;4.026;2023-05-10T06:00:24;56.00;;;25.80;;
31132;SDS011;17779;50.942;4.026;2023-05-10T06:02:50;61.17;;;27.50;;
31132;SDS011;17779;50.942;4.026;2023-05-10T06:05:16;50.47;;;24.38;;
31132;SDS011;17779;50.942;4.026;2023-05-10T06:07:44;51.47;;;24.75;;
31132;SDS011;17779;50.942;4.026;2023-05-10T06:10:11;56.08;;;27.88;;
31132;SDS011;17779;50.942;4.026;2023-05-10T06:12:36;50.78;;;27.25;;
31132;SDS011;17779;50.942;4.026;2023-05-10T06:15:03;52.38;;;25.80;;
31132;SDS011;17779;50.942;4.026;2023-05-10T06:17:31;45.20;;;25.00;;
31132;SDS011;17779;50.942;4.026;2023-05-10T06:19:57;54.25;;;26.08;;
31132;SDS011;17779;50.942;4.026;2023-05-10T06:22:23;45.25;;;25.23;;
31132;SDS011;17779;50.942;4.026;2023-05-10T06:24:49;54.90;;;26.58;;
31132;SDS011;17779;50.942;4.026;2023-05-10T06:27:14;52.03;;;25.67;;
31132;SDS011;17779;50.942;4.026;2023-05-10T06:29:40;55.47;;;26.17;;
31132;SDS011;17779;50.942;4.026;2023-05-10T06:32:06;51.80;;;25.10;;
31132;SDS011;17779;50.942;4.026;2023-05-10T06:34:32;47.83;;;24.13;;
31132;SDS011;17779;50.942;4.026;2023-05-10T06:36:57;46.78;;;24.15;;
31132;SDS011;17779;50.942;4.026;2023-05-10T06:39:23;51.28;;;24.73;;
31132;SDS011;17779;50.942;4.026;2023-05-10T06:41:49;50.00;;;24.58;;
31132;SDS011;17779;50.942;4.026;2023-05-10T06:44:15;46.70;;;23.27;;
31132;SDS011;17779;50.942;4.026;2023-05-10T06:46:40;54.22;;;24.02;;
31132;SDS011;17779;50.942;4.026;2023-05-10T06:49:06;48.40;;;22.15;;
31132;SDS011;17779;50.942;4.026;2023-05-10T06:51:32;43.22;;;22.67;;
31132;SDS011;17779;50.942;4.026;2023-05-10T06:53:58;43.80;;;22.40;;
31132;SDS011;17779;50.942;4.026;2023-05-10T06:58:51;40.20;;;20.27;;
31132;SDS011;17779;50.942;4.026;2023-05-10T07:01:16;42.75;;;20.35;;
31132;SDS011;17779;50.942;4.026;2023-05-10T07:03:42;47.08;;;20.38;;
31132;SDS011;17779;50.942;4.026;2023-05-10T07:06:08;45.92;;;20.92;;
31132;SDS011;17779;50.942;4.026;2023-05-10T07:08:34;44.35;;;20.48;;
31132;SDS011;17779;50.942;4.026;2023-05-10T07:11:03;39.35;;;18.40;;
31132;SDS011;17779;50.942;4.026;2023-05-10T07:13:30;49.03;;;21.13;;
31132;SDS011;17779;50.942;4.026;2023-05-10T07:15:57;49.47;;;21.55;;
31132;SDS011;17779;50.942;4.026;2023-05-10T07:18:23;43.90;;;20.65;;
31132;SDS011;17779;50.942;4.026;2023-05-10T07:20:50;42.58;;;20.40;;
31132;SDS011;17779;50.942;4.026;2023-05-10T07:23:17;38.00;;;19.48;;
31132;SDS011;17779;50.942;4.026;2023-05-10T07:25:46;41.67;;;19.83;;
31132;SDS011;17779;50.942;4.026;2023-05-10T07:28:13;37.75;;;18.70;;
31132;SDS011;17779;50.942;4.026;2023-05-10T07:30:40;49.58;;;20.23;;
31132;SDS011;17779;50.942;4.026;2023-05-10T07:33:06;39.63;;;19.45;;
31132;SDS011;17779;50.942;4.026;2023-05-10T07:35:34;42.10;;;19.77;;
31132;SDS011;17779;50.942;4.026;2023-05-10T07:40:26;44.83;;;20.83;;
31132;SDS011;17779;50.942;4.026;2023-05-10T07:42:51;45.72;;;20.65;;
31132;SDS011;17779;50.942;4.026;2023-05-10T07:45:17;42.10;;;19.67;;
31132;SDS011;17779;50.942;4.026;2023-05-10T07:47:43;38.28;;;19.75;;
31132;SDS011;17779;50.942;4.026;2023-05-10T07:50:09;36.40;;;19.00;;
31132;SDS011;17779;50.942;4.026;2023-05-10T07:52:35;42.67;;;19.00;;
31132;SDS011;17779;50.942;4.026;2023-05-10T07:55:01;33.33;;;18.30;;
31132;SDS011;17779;50.942;4.026;2023-05-10T07:59:52;31.65;;;16.75;;
31132;SDS011;17779;50.942;4.026;2023-05-10T08:02:18;38.75;;;18.38;;
31132;SDS011;17779;50.942;4.026;2023-05-10T08:04:44;37.60;;;16.33;;
31132;SDS011;17779;50.942;4.026;2023-05-10T08:07:10;33.53;;;17.00;;
31132;SDS011;17779;50.942;4.026;2023-05-10T08:09:36;37.33;;;16.27;;
31132;SDS011;17779;50.942;4.026;2023-05-10T08:12:02;39.05;;;16.08;;
31132;SDS011;17779;50.942;4.026;2023-05-10T08:14:30;33.75;;;15.88;;
31132;SDS011;17779;50.942;4.026;2023-05-10T08:16:56;32.03;;;14.82;;
31132;SDS011;17779;50.942;4.026;2023-05-10T08:19:22;32.45;;;14.68;;
31132;SDS011;17779;50.942;4.026;2023-05-10T08:21:48;30.35;;;14.45;;
31132;SDS011;17779;50.942;4.026;2023-05-10T08:24:14;25.10;;;13.02;;
31132;SDS011;17779;50.942;4.026;2023-05-10T08:26:42;26.42;;;13.60;;
31132;SDS011;17779;50.942;4.026;2023-05-10T08:29:08;29.80;;;14.15;;
31132;SDS011;17779;50.942;4.026;2023-05-10T08:31:34;29.80;;;11.98;;
31132;SDS011;17779;50.942;4.026;2023-05-10T08:33:59;25.95;;;11.30;;
31132;SDS011;17779;50.942;4.026;2023-05-10T08:36:25;28.63;;;12.02;;
31132;SDS011;17779;50.942;4.026;2023-05-10T08:38:51;26.95;;;12.60;;
31132;SDS011;17779;50.942;4.026;2023-05-10T08:43:46;24.67;;;11.52;;
31132;SDS011;17779;50.942;4.026;2023-05-10T08:46:16;23.65;;;10.75;;
31132;SDS011;17779;50.942;4.026;2023-05-10T08:48:46;22.83;;;11.82;;
31132;SDS011;17779;50.942;4.026;2023-05-10T08:51:13;25.40;;;11.65;;
31132;SDS011;17779;50.942;4.026;2023-05-10T08:53:41;24.65;;;11.60;;
31132;SDS011;17779;50.942;4.026;2023-05-10T08:56:07;24.67;;;11.57;;
31132;SDS011;17779;50.942;4.026;2023-05-10T08:58:33;22.88;;;11.60;;
31132;SDS011;17779;50.942;4.026;2023-05-10T09:00:59;21.67;;;10.93;;
31132;SDS011;17779;50.942;4.026;2023-05-10T09:03:25;20.80;;;11.00;;
31132;SDS011;17779;50.942;4.026;2023-05-10T09:05:51;25.10;;;12.02;;
31132;SDS011;17779;50.942;4.026;2023-05-10T09:08:17;24.50;;;10.98;;
31132;SDS011;17779;50.942;4.026;2023-05-10T09:13:12;22.88;;;11.65;;
31132;SDS011;17779;50.942;4.026;2023-05-10T09:15:39;26.25;;;11.02;;
31132;SDS011;17779;50.942;4.026;2023-05-10T09:18:05;23.08;;;11.98;;
31132;SDS011;17779;50.942;4.026;2023-05-10T09:20:30;19.60;;;10.15;;
31132;SDS011;17779;50.942;4.026;2023-05-10T09:22:56;17.20;;;9.80;;
31132;SDS011;17779;50.942;4.026;2023-05-10T09:25:22;22.02;;;10.48;;
31132;SDS011;17779;50.942;4.026;2023-05-10T09:27:48;17.52;;;9.85;;
31132;SDS011;17779;50.942;4.026;2023-05-10T09:32:50;16.30;;;9.43;;
31132;SDS011;17779;50.942;4.026;2023-05-10T09:35:19;18.98;;;10.48;;
31132;SDS011;17779;50.942;4.026;2023-05-10T09:37:49;18.00;;;10.02;;
31132;SDS011;17779;50.942;4.026;2023-05-10T09:40:16;18.98;;;9.48;;
31132;SDS011;17779;50.942;4.026;2023-05-10T09:42:53;22.98;;;9.85;;
31132;SDS011;17779;50.942;4.026;2023-05-10T09:45:24;16.52;;;10.43;;
31132;SDS011;17779;50.942;4.026;2023-05-10T09:47:54;16.38;;;9.57;;
31132;SDS011;17779;50.942;4.026;2023-05-10T09:50:20;17.02;;;11.07;;
31132;SDS011;17779;50.942;4.026;2023-05-10T09:52:47;20.55;;;9.82;;
31132;SDS011;17779;50.942;4.026;2023-05-10T09:55:13;19.42;;;11.05;;
31132;SDS011;17779;50.942;4.026;2023-05-10T09:57:39;19.23;;;10.20;;
31132;SDS011;17779;50.942;4.026;2023-05-10T10:00:05;18.10;;;10.77;;
31132;SDS011;17779;50.942;4.026;2023-05-10T10:02:32;21.42;;;11.48;;
31132;SDS011;17779;50.942;4.026;2023-05-10T10:04:58;19.73;;;10.15;;
31132;SDS011;17779;50.942;4.026;2023-05-10T10:07:26;19.70;;;10.95;;
31132;SDS011;17779;50.942;4.026;2023-05-10T10:09:53;14.77;;;9.75;;
31132;SDS011;17779;50.942;4.026;2023-05-10T10:12:19;19.90;;;10.55;;
31132;SDS011;17779;50.942;4.026;2023-05-10T10:17:15;19.48;;;11.70;;
31132;SDS011;17779;50.942;4.026;2023-05-10T10:22:07;17.27;;;10.35;;
31132;SDS011;17779;50.942;4.026;2023-05-10T10:24:35;14.98;;;9.73;;
31132;SDS011;17779;50.942;4.026;2023-05-10T10:27:04;16.63;;;10.57;;
31132;SDS011;17779;50.942;4.026;2023-05-10T10:30:20;15.82;;;11.20;;
31132;SDS011;17779;50.942;4.026;2023-05-10T10:35:52;17.20;;;11.02;;
31132;SDS011;17779;50.942;4.026;2023-05-10T10:38:19;16.92;;;11.02;;
31132;SDS011;17779;50.942;4.026;2023-05-10T10:40:46;21.90;;;11.43;;
31132;SDS011;17779;50.942;4.026;2023-05-10T10:43:22;34.90;;;21.85;;
31132;SDS011;17779;50.942;4.026;2023-05-10T10:48:35;21.13;;;10.68;;
31132;SDS011;17779;50.942;4.026;2023-05-10T10:51:01;20.10;;;10.10;;
31132;SDS011;17779;50.942;4.026;2023-05-10T10:53:28;18.98;;;10.93;;
31132;SDS011;17779;50.942;4.026;2023-05-10T10:56:10;16.25;;;9.88;;
31132;SDS011;17779;50.942;4.026;2023-05-10T10:58:38;21.45;;;11.05;;
31132;SDS011;17779;50.942;4.026;2023-05-10T11:01:11;18.35;;;10.82;;
31132;SDS011;17779;50.942;4.026;2023-05-10T11:03:38;19.08;;;10.95;;
31132;SDS011;17779;50.942;4.026;2023-05-10T11:06:03;19.88;;;11.02;;
31132;SDS011;17779;50.942;4.026;2023-05-10T11:16:20;20.20;;;10.63;;
31132;SDS011;17779;50.942;4.026;2023-05-10T11:19:07;15.63;;;10.10;;
31132;SDS011;17779;50.942;4.026;2023-05-10T11:21:44;26.13;;;11.30;;
31132;SDS011;17779;50.942;4.026;2023-05-10T11:24:28;18.58;;;10.80;;
31132;SDS011;17779;50.942;4.026;2023-05-10T11:29:20;17.48;;;10.10;;
31132;SDS011;17779;50.942;4.026;2023-05-10T11:31:46;21.77;;;11.57;;
31132;SDS011;17779;50.942;4.026;2023-05-10T11:34:26;17.58;;;9.38;;
31132;SDS011;17779;50.942;4.026;2023-05-10T11:36:55;21.77;;;10.50;;
31132;SDS011;17779;50.942;4.026;2023-05-10T11:39:25;20.75;;;10.23;;
31132;SDS011;17779;50.942;4.026;2023-05-10T11:41:55;14.55;;;9.73;;
31132;SDS011;17779;50.942;4.026;2023-05-10T11:44:22;16.13;;;9.70;;
31132;SDS011;17779;50.942;4.026;2023-05-10T11:46:48;19.40;;;9.82;;
31132;SDS011;17779;50.942;4.026;2023-05-10T11:49:14;19.60;;;10.25;;
31132;SDS011;17779;50.942;4.026;2023-05-10T11:51:40;17.70;;;10.10;;
31132;SDS011;17779;50.942;4.026;2023-05-10T11:54:09;18.65;;;9.98;;
31132;SDS011;17779;50.942;4.026;2023-05-10T11:56:39;17.00;;;10.20;;
31132;SDS011;17779;50.942;4.026;2023-05-10T11:59:05;15.38;;;10.07;;
31132;SDS011;17779;50.942;4.026;2023-05-10T12:01:31;17.08;;;9.43;;
31132;SDS011;17779;50.942;4.026;2023-05-10T12:03:57;20.58;;;9.68;;
31132;SDS011;17779;50.942;4.026;2023-05-10T12:06:28;16.92;;;9.52;;
31132;SDS011;17779;50.942;4.026;2023-05-10T12:09:05;20.90;;;10.68;;
31132;SDS011;17779;50.942;4.026;2023-05-10T12:11:35;17.02;;;10.70;;
31132;SDS011;17779;50.942;4.026;2023-05-10T12:14:04;17.75;;;11.15;;
31132;SDS011;17779;50.942;4.026;2023-05-10T12:16:30;17.13;;;9.77;;
31132;SDS011;17779;50.942;4.026;2023-05-10T12:21:25;17.17;;;10.73;;
31132;SDS011;17779;50.942;4.026;2023-05-10T12:23:54;20.10;;;10.10;;
31132;SDS011;17779;50.942;4.026;2023-05-10T12:26:24;21.15;;;10.63;;
31132;SDS011;17779;50.942;4.026;2023-05-10T12:28:52;17.85;;;10.38;;
31132;SDS011;17779;50.942;4.026;2023-05-10T12:31:18;18.85;;;10.98;;
31132;SDS011;17779;50.942;4.026;2023-05-10T12:33:45;19.02;;;11.13;;
31132;SDS011;17779;50.942;4.026;2023-05-10T12:36:14;17.48;;;10.63;;
31132;SDS011;17779;50.942;4.026;2023-05-10T12:38:44;20.45;;;11.57;;
31132;SDS011;17779;50.942;4.026;2023-05-10T12:41:16;17.00;;;10.95;;
31132;SDS011;17779;50.942;4.026;2023-05-10T12:43:43;20.02;;;11.45;;
31132;SDS011;17779;50.942;4.026;2023-05-10T12:48:37;18.75;;;11.25;;
31132;SDS011;17779;50.942;4.026;2023-05-10T12:51:04;18.05;;;11.55;;
31132;SDS011;17779;50.942;4.026;2023-05-10T12:53:35;69.03;;;24.60;;
31132;SDS011;17779;50.942;4.026;2023-05-10T12:56:02;21.75;;;12.45;;
31132;SDS011;17779;50.942;4.026;2023-05-10T12:58:28;22.75;;;12.07;;
31132;SDS011;17779;50.942;4.026;2023-05-10T13:00:54;19.02;;;12.57;;
31132;SDS011;17779;50.942;4.026;2023-05-10T13:03:21;23.45;;;11.80;;
31132;SDS011;17779;50.942;4.026;2023-05-10T13:08:13;26.00;;;12.48;;
31132;SDS011;17779;50.942;4.026;2023-05-10T13:10:39;23.17;;;13.18;;
31132;SDS011;17779;50.942;4.026;2023-05-10T13:13:05;22.70;;;13.18;;
31132;SDS011;17779;50.942;4.026;2023-05-10T13:15:31;21.67;;;13.05;;
31132;SDS011;17779;50.942;4.026;2023-05-10T13:17:57;18.17;;;12.55;;
31132;SDS011;17779;50.942;4.026;2023-05-10T13:20:22;23.67;;;13.27;;
31132;SDS011;17779;50.942;4.026;2023-05-10T13:22:48;19.48;;;13.68;;
31132;SDS011;17779;50.942;4.026;2023-05-10T13:27:40;22.77;;;12.75;;
31132;SDS011;17779;50.942;4.026;2023-05-10T13:30:07;17.75;;;12.93;;
31132;SDS011;17779;50.942;4.026;2023-05-10T13:32:33;19.10;;;12.70;;
31132;SDS011;17779;50.942;4.026;2023-05-10T13:37:25;24.27;;;14.23;;
31132;SDS011;17779;50.942;4.026;2023-05-10T13:39:51;21.63;;;13.55;;
31132;SDS011;17779;50.942;4.026;2023-05-10T13:42:17;24.85;;;14.18;;
31132;SDS011;17779;50.942;4.026;2023-05-10T13:44:43;23.52;;;13.48;;
31132;SDS011;17779;50.942;4.026;2023-05-10T13:47:09;22.65;;;12.80;;
31132;SDS011;17779;50.942;4.026;2023-05-10T13:49:35;21.63;;;12.45;;
31132;SDS011;17779;50.942;4.026;2023-05-10T13:52:01;19.80;;;13.88;;
31132;SDS011;17779;50.942;4.026;2023-05-10T13:54:34;21.45;;;12.48;;
31132;SDS011;17779;50.942;4.026;2023-05-10T13:57:00;26.25;;;14.77;;
31132;SDS011;17779;50.942;4.026;2023-05-10T13:59:26;23.88;;;13.43;;
31132;SDS011;17779;50.942;4.026;2023-05-10T14:01:52;28.35;;;15.48;;
31132;SDS011;17779;50.942;4.026;2023-05-10T14:04:18;27.17;;;15.52;;
31132;SDS011;17779;50.942;4.026;2023-05-10T14:06:43;28.17;;;15.95;;
31132;SDS011;17779;50.942;4.026;2023-05-10T14:09:09;31.15;;;16.35;;
31132;SDS011;17779;50.942;4.026;2023-05-10T14:11:35;24.40;;;15.82;;
31132;SDS011;17779;50.942;4.026;2023-05-10T14:14:01;28.90;;;17.08;;
31132;SDS011;17779;50.942;4.026;2023-05-10T14:16:27;28.98;;;16.60;;
31132;SDS011;17779;50.942;4.026;2023-05-10T14:18:53;24.05;;;15.30;;
31132;SDS011;17779;50.942;4.026;2023-05-10T14:21:19;26.00;;;15.80;;
31132;SDS011;17779;50.942;4.026;2023-05-10T14:23:45;29.30;;;16.40;;
31132;SDS011;17779;50.942;4.026;2023-05-10T14:26:10;31.48;;;16.88;;
31132;SDS011;17779;50.942;4.026;2023-05-10T14:31:02;21.73;;;8.63;;
31132;SDS011;17779;50.942;4.026;2023-05-10T14:33:28;21.00;;;9.18;;
31132;SDS011;17779;50.942;4.026;2023-05-10T14:35:54;25.10;;;8.32;;
31132;SDS011;17779;50.942;4.026;2023-05-10T14:38:22;15.30;;;7.10;;
31132;SDS011;17779;50.942;4.026;2023-05-10T14:43:13;14.98;;;7.82;;
31132;SDS011;17779;50.942;4.026;2023-05-10T14:45:39;20.88;;;7.82;;
31132;SDS011;17779;50.942;4.026;2023-05-10T14:48:05;20.77;;;8.50;;
31132;SDS011;17779;50.942;4.026;2023-05-10T14:52:57;17.10;;;6.82;;
31132;SDS011;17779;50.942;4.026;2023-05-10T14:55:24;14.73;;;6.25;;
31132;SDS011;17779;50.942;4.026;2023-05-10T14:57:49;13.52;;;6.95;;
31132;SDS011;17779;50.942;4.026;2023-05-10T15:00:15;13.50;;;7.10;;
31132;SDS011;17779;50.942;4.026;2023-05-10T15:02:43;18.85;;;7.85;;
31132;SDS011;17779;50.942;4.026;2023-05-10T15:05:10;11.88;;;5.32;;
31132;SDS011;17779;50.942;4.026;2023-05-10T15:07:36;15.98;;;6.38;;
31132;SDS011;17779;50.942;4.026;2023-05-10T15:10:02;16.17;;;6.55;;
31132;SDS011;17779;50.942;4.026;2023-05-10T15:12:28;17.45;;;6.95;;
31132;SDS011;17779;50.942;4.026;2023-05-10T15:14:53;16.63;;;7.00;;
31132;SDS011;17779;50.942;4.026;2023-05-10T15:17:19;31.63;;;7.53;;
31132;SDS011;17779;50.942;4.026;2023-05-10T15:19:45;16.38;;;7.30;;
31132;SDS011;17779;50.942;4.026;2023-05-10T15:22:11;20.02;;;7.18;;
31132;SDS011;17779;50.942;4.026;2023-05-10T15:24:36;16.65;;;7.00;;
31132;SDS011;17779;50.942;4.026;2023-05-10T15:27:02;15.40;;;7.90;;
31132;SDS011;17779;50.942;4.026;2023-05-10T15:29:28;11.85;;;7.15;;
31132;SDS011;17779;50.942;4.026;2023-05-10T15:31:54;17.55;;;8.45;;
31132;SDS011;17779;50.942;4.026;2023-05-10T15:36:46;20.90;;;8.15;;
31132;SDS011;17779;50.942;4.026;2023-05-10T15:39:12;17.95;;;8.70;;
31132;SDS011;17779;50.942;4.026;2023-05-10T15:41:37;17.65;;;7.43;;
31132;SDS011;17779;50.942;4.026;2023-05-10T15:44:03;17.52;;;7.60;;
31132;SDS011;17779;50.942;4.026;2023-05-10T15:46:29;19.52;;;8.35;;
31132;SDS011;17779;50.942;4.026;2023-05-10T15:48:58;19.23;;;7.78;;
31132;SDS011;17779;50.942;4.026;2023-05-10T15:51:24;18.63;;;8.95;;
31132;SDS011;17779;50.942;4.026;2023-05-10T15:53:50;18.35;;;9.02;;